sensor_id;sensor_type;location;lat;lon;timestamp;temperature;humidity
84739;DHT22;74969;44.836;-0.586;2024-02-04T00:00:47;7.10;85.90
84739;DHT22;74969;44.836;-0.586;2024-02-04T00:03:13;7.10;85.80
84739;DHT22;74969;44.836;-0.586;2024-02-04T00:05:39;7.00;86.00
84739;DHT22;74969;44.836;-0.586;2024-02-04T00:08:05;7.00;86.30
84739;DHT22;74969;44.836;-0.586;2024-02-04T00:10:30;7.00;86.30
84739;DHT22;74969;44.836;-0.586;2024-02-04T00:12:56;7.00;86.30
84739;DHT22;74969;44.836;-0.586;2024-02-04T00:15:22;7.00;86.40
84739;DHT22;74969;44.836;-0.586;2024-02-04T00:17:48;7.00;86.30
84739;DHT22;74969;44.836;-0.586;2024-02-04T00:20:14;7.00;86.30
84739;DHT22;74969;44.836;-0.586;2024-02-04T00:22:39;6.90;86.30
84739;DHT22;74969;44.836;-0.586;2024-02-04T00:25:05;6.90;86.50
84739;DHT22;74969;44.836;-0.586;2024-02-04T00:27:32;6.90;86.30
84739;DHT22;74969;44.836;-0.586;2024-02-04T00:29:58;6.90;86.00
84739;DHT22;74969;44.836;-0.586;2024-02-04T00:32:24;6.90;86.20
84739;DHT22;74969;44.836;-0.586;2024-02-04T00:34:50;6.80;86.00
84739;DHT22;74969;44.836;-0.586;2024-02-04T00:37:16;6.80;86.00
84739;DHT22;74969;44.836;-0.586;2024-02-04T00:39:41;6.80;85.90
84739;DHT22;74969;44.836;-0.586;2024-02-04T00:42:07;6.70;85.90
84739;DHT22;74969;44.836;-0.586;2024-02-04T00:44:32;6.70;86.10
84739;DHT22;74969;44.836;-0.586;2024-02-04T00:46:58;6.70;86.30
84739;DHT22;74969;44.836;-0.586;2024-02-04T00:49:24;6.70;86.10
84739;DHT22;74969;44.836;-0.586;2024-02-04T00:51:51;6.50;85.80
84739;DHT22;74969;44.836;-0.586;2024-02-04T00:54:17;6.50;85.60
84739;DHT22;74969;44.836;-0.586;2024-02-04T00:56:43;6.30;86.10
84739;DHT22;74969;44.836;-0.586;2024-02-04T00:59:08;6.30;86.80
84739;DHT22;74969;44.836;-0.586;2024-02-04T01:01:34;6.20;86.90
84739;DHT22;74969;44.836;-0.586;2024-02-04T01:04:00;6.00;87.40
84739;DHT22;74969;44.836;-0.586;2024-02-04T01:06:25;6.10;87.60
84739;DHT22;74969;44.836;-0.586;2024-02-04T01:08:51;6.10;87.60
84739;DHT22;74969;44.836;-0.586;2024-02-04T01:11:17;6.00;87.60
84739;DHT22;74969;44.836;-0.586;2024-02-04T01:13:43;6.00;87.70
84739;DHT22;74969;44.836;-0.586;2024-02-04T01:16:08;6.00;88.00
84739;DHT22;74969;44.836;-0.586;2024-02-04T01:18:34;5.90;88.30
84739;DHT22;74969;44.836;-0.586;2024-02-04T01:20:59;6.00;88.40
84739;DHT22;74969;44.836;-0.586;2024-02-04T01:23:26;6.00;88.30
84739;DHT22;74969;44.836;-0.586;2024-02-04T01:25:51;6.10;88.00
84739;DHT22;74969;44.836;-0.586;2024-02-04T01:28:17;6.20;87.80
84739;DHT22;74969;44.836;-0.586;2024-02-04T01:30:43;6.30;87.60
84739;DHT22;74969;44.836;-0.586;2024-02-04T01:33:08;6.40;87.40
84739;DHT22;74969;44.836;-0.586;2024-02-04T01:35:34;6.30;87.00
84739;DHT22;74969;44.836;-0.586;2024-02-04T01:38:00;6.40;87.00
84739;DHT22;74969;44.836;-0.586;2024-02-04T01:40:25;6.40;86.90
84739;DHT22;74969;44.836;-0.586;2024-02-04T01:42:51;6.40;86.90
84739;DHT22;74969;44.836;-0.586;2024-02-04T01:45:17;6.40;86.80
84739;DHT22;74969;44.836;-0.586;2024-02-04T01:47:43;6.30;86.70
84739;DHT22;74969;44.836;-0.586;2024-02-04T01:50:09;6.30;86.80
84739;DHT22;74969;44.836;-0.586;2024-02-04T01:52:37;6.20;87.00
84739;DHT22;74969;44.836;-0.586;2024-02-04T01:55:05;6.20;86.80
84739;DHT22;74969;44.836;-0.586;2024-02-04T01:57:32;6.30;86.70
84739;DHT22;74969;44.836;-0.586;2024-02-04T02:00:00;6.40;86.60
84739;DHT22;74969;44.836;-0.586;2024-02-04T02:02:26;6.30;86.90
84739;DHT22;74969;44.836;-0.586;2024-02-04T02:04:52;6.40;86.60
84739;DHT22;74969;44.836;-0.586;2024-02-04T02:07:18;6.40;86.80
84739;DHT22;74969;44.836;-0.586;2024-02-04T02:09:47;6.40;86.90
84739;DHT22;74969;44.836;-0.586;2024-02-04T02:12:39;6.30;87.10
84739;DHT22;74969;44.836;-0.586;2024-02-04T02:15:09;6.20;87.60
84739;DHT22;74969;44.836;-0.586;2024-02-04T02:17:45;6.20;87.60
84739;DHT22;74969;44.836;-0.586;2024-02-04T02:20:30;6.20;87.30
84739;DHT22;74969;44.836;-0.586;2024-02-04T02:23:06;6.10;87.60
84739;DHT22;74969;44.836;-0.586;2024-02-04T02:25:33;6.10;87.50
84739;DHT22;74969;44.836;-0.586;2024-02-04T02:28:01;6.20;87.20
84739;DHT22;74969;44.836;-0.586;2024-02-04T02:30:27;6.20;87.00
84739;DHT22;74969;44.836;-0.586;2024-02-04T02:32:53;6.20;86.50
84739;DHT22;74969;44.836;-0.586;2024-02-04T02:35:19;6.20;86.20
84739;DHT22;74969;44.836;-0.586;2024-02-04T02:40:30;6.10;86.80
84739;DHT22;74969;44.836;-0.586;2024-02-04T02:42:57;6.00;87.00
84739;DHT22;74969;44.836;-0.586;2024-02-04T02:45:27;6.00;87.00
84739;DHT22;74969;44.836;-0.586;2024-02-04T02:47:54;6.00;87.20
84739;DHT22;74969;44.836;-0.586;2024-02-04T02:50:20;6.00;87.30
84739;DHT22;74969;44.836;-0.586;2024-02-04T02:52:46;6.10;87.30
84739;DHT22;74969;44.836;-0.586;2024-02-04T02:55:12;6.10;87.20
84739;DHT22;74969;44.836;-0.586;2024-02-04T02:57:38;6.10;87.40
84739;DHT22;74969;44.836;-0.586;2024-02-04T03:00:04;6.10;87.70
84739;DHT22;74969;44.836;-0.586;2024-02-04T03:02:31;6.10;87.30
84739;DHT22;74969;44.836;-0.586;2024-02-04T03:04:57;6.20;87.00
84739;DHT22;74969;44.836;-0.586;2024-02-04T03:07:23;6.20;86.50
84739;DHT22;74969;44.836;-0.586;2024-02-04T03:09:48;6.20;86.60
84739;DHT22;74969;44.836;-0.586;2024-02-04T03:12:14;6.10;86.60
84739;DHT22;74969;44.836;-0.586;2024-02-04T03:14:40;6.10;86.50
84739;DHT22;74969;44.836;-0.586;2024-02-04T03:17:05;6.00;86.40
84739;DHT22;74969;44.836;-0.586;2024-02-04T03:19:31;6.00;86.60
84739;DHT22;74969;44.836;-0.586;2024-02-04T03:21:57;5.90;87.40
84739;DHT22;74969;44.836;-0.586;2024-02-04T03:24:22;5.90;87.80
84739;DHT22;74969;44.836;-0.586;2024-02-04T03:26:48;5.90;87.60
84739;DHT22;74969;44.836;-0.586;2024-02-04T03:29:14;5.80;87.20
84739;DHT22;74969;44.836;-0.586;2024-02-04T03:31:39;5.80;87.50
84739;DHT22;74969;44.836;-0.586;2024-02-04T03:34:05;5.70;87.60
84739;DHT22;74969;44.836;-0.586;2024-02-04T03:36:31;5.60;88.00
84739;DHT22;74969;44.836;-0.586;2024-02-04T03:38:57;5.60;88.60
84739;DHT22;74969;44.836;-0.586;2024-02-04T03:41:23;5.60;88.70
84739;DHT22;74969;44.836;-0.586;2024-02-04T03:43:48;5.60;88.10
84739;DHT22;74969;44.836;-0.586;2024-02-04T03:46:15;5.60;87.30
84739;DHT22;74969;44.836;-0.586;2024-02-04T03:48:40;5.50;87.80
84739;DHT22;74969;44.836;-0.586;2024-02-04T03:51:06;5.40;88.70
84739;DHT22;74969;44.836;-0.586;2024-02-04T03:53:32;5.40;89.10
84739;DHT22;74969;44.836;-0.586;2024-02-04T03:55:58;5.40;88.90
84739;DHT22;74969;44.836;-0.586;2024-02-04T03:58:24;5.40;88.30
84739;DHT22;74969;44.836;-0.586;2024-02-04T04:00:55;5.30;88.80
84739;DHT22;74969;44.836;-0.586;2024-02-04T04:03:22;5.30;89.30
84739;DHT22;74969;44.836;-0.586;2024-02-04T04:05:48;5.30;89.10
84739;DHT22;74969;44.836;-0.586;2024-02-04T04:08:14;5.40;88.80
84739;DHT22;74969;44.836;-0.586;2024-02-04T04:10:39;5.50;88.50
84739;DHT22;74969;44.836;-0.586;2024-02-04T04:13:05;5.40;88.20
84739;DHT22;74969;44.836;-0.586;2024-02-04T04:15:31;5.40;88.50
84739;DHT22;74969;44.836;-0.586;2024-02-04T04:17:56;5.40;88.50
84739;DHT22;74969;44.836;-0.586;2024-02-04T04:20:22;5.50;88.40
84739;DHT22;74969;44.836;-0.586;2024-02-04T04:22:48;5.50;88.10
84739;DHT22;74969;44.836;-0.586;2024-02-04T04:25:14;5.50;87.80
84739;DHT22;74969;44.836;-0.586;2024-02-04T04:27:40;5.50;87.10
84739;DHT22;74969;44.836;-0.586;2024-02-04T04:30:06;5.50;86.80
84739;DHT22;74969;44.836;-0.586;2024-02-04T04:32:31;5.40;87.00
84739;DHT22;74969;44.836;-0.586;2024-02-04T04:34:58;5.30;87.20
84739;DHT22;74969;44.836;-0.586;2024-02-04T04:37:23;5.30;87.30
84739;DHT22;74969;44.836;-0.586;2024-02-04T04:39:49;5.30;87.30
84739;DHT22;74969;44.836;-0.586;2024-02-04T04:42:14;5.30;87.20
84739;DHT22;74969;44.836;-0.586;2024-02-04T04:44:40;5.30;87.80
84739;DHT22;74969;44.836;-0.586;2024-02-04T04:47:06;5.40;87.90
84739;DHT22;74969;44.836;-0.586;2024-02-04T04:49:31;5.40;87.70
84739;DHT22;74969;44.836;-0.586;2024-02-04T04:51:57;5.40;88.10
84739;DHT22;74969;44.836;-0.586;2024-02-04T04:54:23;5.50;88.20
84739;DHT22;74969;44.836;-0.586;2024-02-04T04:56:48;5.50;87.80
84739;DHT22;74969;44.836;-0.586;2024-02-04T04:59:15;5.50;88.10
84739;DHT22;74969;44.836;-0.586;2024-02-04T05:01:48;5.50;88.10
84739;DHT22;74969;44.836;-0.586;2024-02-04T05:04:14;5.50;88.00
84739;DHT22;74969;44.836;-0.586;2024-02-04T05:06:40;5.40;88.20
84739;DHT22;74969;44.836;-0.586;2024-02-04T05:09:06;5.50;87.90
84739;DHT22;74969;44.836;-0.586;2024-02-04T05:11:31;5.60;87.70
84739;DHT22;74969;44.836;-0.586;2024-02-04T05:13:57;5.50;88.10
84739;DHT22;74969;44.836;-0.586;2024-02-04T05:16:23;5.60;87.80
84739;DHT22;74969;44.836;-0.586;2024-02-04T05:18:49;5.70;86.80
84739;DHT22;74969;44.836;-0.586;2024-02-04T05:21:14;5.60;86.20
84739;DHT22;74969;44.836;-0.586;2024-02-04T05:23:40;5.50;86.50
84739;DHT22;74969;44.836;-0.586;2024-02-04T05:26:06;5.50;86.60
84739;DHT22;74969;44.836;-0.586;2024-02-04T05:28:32;5.40;87.00
84739;DHT22;74969;44.836;-0.586;2024-02-04T05:30:58;5.40;87.70
84739;DHT22;74969;44.836;-0.586;2024-02-04T05:33:24;5.40;88.00
84739;DHT22;74969;44.836;-0.586;2024-02-04T05:35:49;5.50;88.10
84739;DHT22;74969;44.836;-0.586;2024-02-04T05:38:16;5.50;88.00
84739;DHT22;74969;44.836;-0.586;2024-02-04T05:40:42;5.30;87.30
84739;DHT22;74969;44.836;-0.586;2024-02-04T05:43:08;5.20;88.10
84739;DHT22;74969;44.836;-0.586;2024-02-04T05:45:39;5.30;88.60
84739;DHT22;74969;44.836;-0.586;2024-02-04T05:48:07;5.40;88.50
84739;DHT22;74969;44.836;-0.586;2024-02-04T05:50:33;5.50;88.20
84739;DHT22;74969;44.836;-0.586;2024-02-04T05:52:58;5.50;88.20
84739;DHT22;74969;44.836;-0.586;2024-02-04T05:55:24;5.50;87.90
84739;DHT22;74969;44.836;-0.586;2024-02-04T05:57:50;5.50;87.60
84739;DHT22;74969;44.836;-0.586;2024-02-04T06:00:16;5.50;88.00
84739;DHT22;74969;44.836;-0.586;2024-02-04T06:02:41;5.50;88.00
84739;DHT22;74969;44.836;-0.586;2024-02-04T06:05:11;5.50;88.10
84739;DHT22;74969;44.836;-0.586;2024-02-04T06:07:37;5.50;87.60
84739;DHT22;74969;44.836;-0.586;2024-02-04T06:10:03;5.50;87.20
84739;DHT22;74969;44.836;-0.586;2024-02-04T06:12:29;5.30;86.50
84739;DHT22;74969;44.836;-0.586;2024-02-04T06:14:55;5.20;86.90
84739;DHT22;74969;44.836;-0.586;2024-02-04T06:17:21;5.00;87.60
84739;DHT22;74969;44.836;-0.586;2024-02-04T06:19:46;5.00;88.20
84739;DHT22;74969;44.836;-0.586;2024-02-04T06:22:12;5.00;87.80
84739;DHT22;74969;44.836;-0.586;2024-02-04T06:24:38;5.10;87.40
84739;DHT22;74969;44.836;-0.586;2024-02-04T06:27:07;5.00;87.30
84739;DHT22;74969;44.836;-0.586;2024-02-04T06:29:33;4.90;87.40
84739;DHT22;74969;44.836;-0.586;2024-02-04T06:31:59;4.90;87.80
84739;DHT22;74969;44.836;-0.586;2024-02-04T06:34:24;4.90;87.30
84739;DHT22;74969;44.836;-0.586;2024-02-04T06:36:50;4.90;87.30
84739;DHT22;74969;44.836;-0.586;2024-02-04T06:39:16;5.00;87.70
84739;DHT22;74969;44.836;-0.586;2024-02-04T06:41:41;5.00;87.20
84739;DHT22;74969;44.836;-0.586;2024-02-04T06:44:07;4.90;87.10
84739;DHT22;74969;44.836;-0.586;2024-02-04T06:46:33;4.90;87.80
84739;DHT22;74969;44.836;-0.586;2024-02-04T06:48:58;4.80;88.10
84739;DHT22;74969;44.836;-0.586;2024-02-04T06:51:24;4.90;88.40
84739;DHT22;74969;44.836;-0.586;2024-02-04T06:53:50;4.90;88.50
84739;DHT22;74969;44.836;-0.586;2024-02-04T06:56:16;5.00;88.30
84739;DHT22;74969;44.836;-0.586;2024-02-04T06:58:41;5.10;87.90
84739;DHT22;74969;44.836;-0.586;2024-02-04T07:01:07;5.20;87.30
84739;DHT22;74969;44.836;-0.586;2024-02-04T07:03:33;5.10;86.20
84739;DHT22;74969;44.836;-0.586;2024-02-04T07:06:00;5.00;86.30
84739;DHT22;74969;44.836;-0.586;2024-02-04T07:08:26;5.00;86.40
84739;DHT22;74969;44.836;-0.586;2024-02-04T07:10:52;4.90;86.40
84739;DHT22;74969;44.836;-0.586;2024-02-04T07:13:18;4.90;86.70
84739;DHT22;74969;44.836;-0.586;2024-02-04T07:15:44;4.80;87.20
84739;DHT22;74969;44.836;-0.586;2024-02-04T07:18:10;4.80;87.40
84739;DHT22;74969;44.836;-0.586;2024-02-04T07:20:35;4.70;87.30
84739;DHT22;74969;44.836;-0.586;2024-02-04T07:23:01;4.60;87.40
84739;DHT22;74969;44.836;-0.586;2024-02-04T07:25:27;4.50;87.70
84739;DHT22;74969;44.836;-0.586;2024-02-04T07:27:54;4.60;87.70
84739;DHT22;74969;44.836;-0.586;2024-02-04T07:30:20;4.60;87.20
84739;DHT22;74969;44.836;-0.586;2024-02-04T07:32:46;4.60;87.50
84739;DHT22;74969;44.836;-0.586;2024-02-04T07:35:12;4.60;87.50
84739;DHT22;74969;44.836;-0.586;2024-02-04T07:37:37;4.60;87.30
84739;DHT22;74969;44.836;-0.586;2024-02-04T07:40:04;4.60;87.30
84739;DHT22;74969;44.836;-0.586;2024-02-04T07:42:32;4.60;87.60
84739;DHT22;74969;44.836;-0.586;2024-02-04T07:44:58;4.70;87.20
84739;DHT22;74969;44.836;-0.586;2024-02-04T07:47:24;4.70;86.60
84739;DHT22;74969;44.836;-0.586;2024-02-04T07:49:50;4.80;86.90
84739;DHT22;74969;44.836;-0.586;2024-02-04T07:52:16;4.80;86.70
84739;DHT22;74969;44.836;-0.586;2024-02-04T07:54:42;4.70;86.50
84739;DHT22;74969;44.836;-0.586;2024-02-04T07:57:09;4.60;86.90
84739;DHT22;74969;44.836;-0.586;2024-02-04T07:59:35;4.60;87.10
84739;DHT22;74969;44.836;-0.586;2024-02-04T08:02:01;4.60;87.30
84739;DHT22;74969;44.836;-0.586;2024-02-04T08:04:26;4.60;87.50
84739;DHT22;74969;44.836;-0.586;2024-02-04T08:06:53;4.60;87.60
84739;DHT22;74969;44.836;-0.586;2024-02-04T08:09:19;4.60;87.50
84739;DHT22;74969;44.836;-0.586;2024-02-04T08:11:44;4.60;87.30
84739;DHT22;74969;44.836;-0.586;2024-02-04T08:14:10;4.60;87.40
84739;DHT22;74969;44.836;-0.586;2024-02-04T08:16:36;4.70;87.50
84739;DHT22;74969;44.836;-0.586;2024-02-04T08:19:01;4.70;87.40
84739;DHT22;74969;44.836;-0.586;2024-02-04T08:21:27;4.70;87.40
84739;DHT22;74969;44.836;-0.586;2024-02-04T08:23:53;4.80;87.30
84739;DHT22;74969;44.836;-0.586;2024-02-04T08:26:19;4.70;86.90
84739;DHT22;74969;44.836;-0.586;2024-02-04T08:28:44;4.60;87.30
84739;DHT22;74969;44.836;-0.586;2024-02-04T08:31:10;4.70;87.70
84739;DHT22;74969;44.836;-0.586;2024-02-04T08:33:36;4.70;87.70
84739;DHT22;74969;44.836;-0.586;2024-02-04T08:36:02;4.90;86.50
84739;DHT22;74969;44.836;-0.586;2024-02-04T08:38:27;4.90;85.90
84739;DHT22;74969;44.836;-0.586;2024-02-04T08:40:53;4.90;85.40
84739;DHT22;74969;44.836;-0.586;2024-02-04T08:43:19;4.90;85.60
84739;DHT22;74969;44.836;-0.586;2024-02-04T08:45:44;4.80;86.00
84739;DHT22;74969;44.836;-0.586;2024-02-04T08:48:10;4.80;86.50
84739;DHT22;74969;44.836;-0.586;2024-02-04T08:50:36;4.90;85.60
84739;DHT22;74969;44.836;-0.586;2024-02-04T08:53:01;4.70;86.30
84739;DHT22;74969;44.836;-0.586;2024-02-04T08:55:27;4.60;87.30
84739;DHT22;74969;44.836;-0.586;2024-02-04T08:57:52;4.70;87.40
84739;DHT22;74969;44.836;-0.586;2024-02-04T09:00:19;4.70;87.10
84739;DHT22;74969;44.836;-0.586;2024-02-04T09:02:45;4.80;87.40
84739;DHT22;74969;44.836;-0.586;2024-02-04T09:05:14;4.90;87.30
84739;DHT22;74969;44.836;-0.586;2024-02-04T09:07:41;4.80;86.80
84739;DHT22;74969;44.836;-0.586;2024-02-04T09:10:07;4.80;87.40
84739;DHT22;74969;44.836;-0.586;2024-02-04T09:12:33;4.80;87.50
84739;DHT22;74969;44.836;-0.586;2024-02-04T09:14:59;4.80;87.50
84739;DHT22;74969;44.836;-0.586;2024-02-04T09:17:24;4.90;87.20
84739;DHT22;74969;44.836;-0.586;2024-02-04T09:19:50;4.90;86.90
84739;DHT22;74969;44.836;-0.586;2024-02-04T09:22:15;4.90;86.40
84739;DHT22;74969;44.836;-0.586;2024-02-04T09:24:42;4.90;86.40
84739;DHT22;74969;44.836;-0.586;2024-02-04T09:27:07;5.00;86.10
84739;DHT22;74969;44.836;-0.586;2024-02-04T09:29:33;5.10;85.80
84739;DHT22;74969;44.836;-0.586;2024-02-04T09:31:59;5.00;85.30
84739;DHT22;74969;44.836;-0.586;2024-02-04T09:34:25;4.90;85.10
84739;DHT22;74969;44.836;-0.586;2024-02-04T09:36:50;4.80;85.70
84739;DHT22;74969;44.836;-0.586;2024-02-04T09:39:19;4.90;86.40
84739;DHT22;74969;44.836;-0.586;2024-02-04T09:41:44;4.90;85.20
84739;DHT22;74969;44.836;-0.586;2024-02-04T09:44:10;4.80;85.10
84739;DHT22;74969;44.836;-0.586;2024-02-04T09:46:37;4.70;85.30
84739;DHT22;74969;44.836;-0.586;2024-02-04T09:49:03;4.80;85.10
84739;DHT22;74969;44.836;-0.586;2024-02-04T09:51:30;4.70;85.70
84739;DHT22;74969;44.836;-0.586;2024-02-04T09:53:59;4.70;86.30
84739;DHT22;74969;44.836;-0.586;2024-02-04T09:56:28;4.80;86.10
84739;DHT22;74969;44.836;-0.586;2024-02-04T09:58:53;4.80;86.10
84739;DHT22;74969;44.836;-0.586;2024-02-04T10:01:19;4.80;86.40
84739;DHT22;74969;44.836;-0.586;2024-02-04T10:03:47;5.00;86.50
84739;DHT22;74969;44.836;-0.586;2024-02-04T10:06:13;5.00;86.10
84739;DHT22;74969;44.836;-0.586;2024-02-04T10:08:39;5.00;85.90
84739;DHT22;74969;44.836;-0.586;2024-02-04T10:11:04;5.00;85.90
84739;DHT22;74969;44.836;-0.586;2024-02-04T10:13:30;5.00;85.70
84739;DHT22;74969;44.836;-0.586;2024-02-04T10:15:56;5.10;86.20
84739;DHT22;74969;44.836;-0.586;2024-02-04T10:18:22;5.20;85.50
84739;DHT22;74969;44.836;-0.586;2024-02-04T10:20:48;5.20;85.00
84739;DHT22;74969;44.836;-0.586;2024-02-04T10:23:14;5.10;84.30
84739;DHT22;74969;44.836;-0.586;2024-02-04T10:25:40;5.00;84.50
84739;DHT22;74969;44.836;-0.586;2024-02-04T10:28:05;4.80;85.10
84739;DHT22;74969;44.836;-0.586;2024-02-04T10:30:31;4.90;85.20
84739;DHT22;74969;44.836;-0.586;2024-02-04T10:32:59;4.90;85.30
84739;DHT22;74969;44.836;-0.586;2024-02-04T10:35:24;4.90;84.70
84739;DHT22;74969;44.836;-0.586;2024-02-04T10:37:50;5.00;85.00
84739;DHT22;74969;44.836;-0.586;2024-02-04T10:40:17;5.00;84.70
84739;DHT22;74969;44.836;-0.586;2024-02-04T10:42:43;5.20;84.80
84739;DHT22;74969;44.836;-0.586;2024-02-04T10:45:10;5.20;84.40
84739;DHT22;74969;44.836;-0.586;2024-02-04T10:47:39;5.20;84.90
84739;DHT22;74969;44.836;-0.586;2024-02-04T10:50:06;5.30;84.60
84739;DHT22;74969;44.836;-0.586;2024-02-04T10:52:36;5.40;84.10
84739;DHT22;74969;44.836;-0.586;2024-02-04T10:55:07;5.40;83.90
84739;DHT22;74969;44.836;-0.586;2024-02-04T10:57:34;5.30;84.10
84739;DHT22;74969;44.836;-0.586;2024-02-04T11:00:02;5.40;84.50
84739;DHT22;74969;44.836;-0.586;2024-02-04T11:02:31;5.50;84.30
84739;DHT22;74969;44.836;-0.586;2024-02-04T11:05:00;5.60;83.00
84739;DHT22;74969;44.836;-0.586;2024-02-04T11:07:31;5.60;83.10
84739;DHT22;74969;44.836;-0.586;2024-02-04T11:09:57;5.60;82.80
84739;DHT22;74969;44.836;-0.586;2024-02-04T11:12:24;5.20;83.20
84739;DHT22;74969;44.836;-0.586;2024-02-04T11:14:54;5.20;84.30
84739;DHT22;74969;44.836;-0.586;2024-02-04T11:17:37;5.20;84.70
84739;DHT22;74969;44.836;-0.586;2024-02-04T11:23:11;5.40;84.30
84739;DHT22;74969;44.836;-0.586;2024-02-04T11:25:47;5.40;84.20
84739;DHT22;74969;44.836;-0.586;2024-02-04T11:28:16;5.40;83.90
84739;DHT22;74969;44.836;-0.586;2024-02-04T11:30:43;5.50;84.20
84739;DHT22;74969;44.836;-0.586;2024-02-04T11:33:11;5.60;84.40
84739;DHT22;74969;44.836;-0.586;2024-02-04T11:35:39;5.70;83.70
84739;DHT22;74969;44.836;-0.586;2024-02-04T11:38:04;5.70;83.20
84739;DHT22;74969;44.836;-0.586;2024-02-04T11:40:33;5.70;83.90
84739;DHT22;74969;44.836;-0.586;2024-02-04T11:45:31;5.80;82.50
84739;DHT22;74969;44.836;-0.586;2024-02-04T11:48:02;5.80;82.70
84739;DHT22;74969;44.836;-0.586;2024-02-04T11:50:29;5.80;83.40
84739;DHT22;74969;44.836;-0.586;2024-02-04T11:53:07;5.90;83.30
84739;DHT22;74969;44.836;-0.586;2024-02-04T11:55:34;5.80;82.40
84739;DHT22;74969;44.836;-0.586;2024-02-04T11:58:01;5.80;83.10
84739;DHT22;74969;44.836;-0.586;2024-02-04T12:00:27;5.90;83.50
84739;DHT22;74969;44.836;-0.586;2024-02-04T12:03:07;6.00;82.90
84739;DHT22;74969;44.836;-0.586;2024-02-04T12:05:34;6.00;82.90
84739;DHT22;74969;44.836;-0.586;2024-02-04T12:08:07;6.10;82.40
84739;DHT22;74969;44.836;-0.586;2024-02-04T12:10:34;5.90;82.10
84739;DHT22;74969;44.836;-0.586;2024-02-04T12:13:05;6.00;82.50
84739;DHT22;74969;44.836;-0.586;2024-02-04T12:15:35;6.00;82.10
84739;DHT22;74969;44.836;-0.586;2024-02-04T12:18:11;5.90;82.10
84739;DHT22;74969;44.836;-0.586;2024-02-04T12:20:37;5.90;82.20
84739;DHT22;74969;44.836;-0.586;2024-02-04T12:23:07;5.90;82.00
84739;DHT22;74969;44.836;-0.586;2024-02-04T12:25:33;5.90;82.60
84739;DHT22;74969;44.836;-0.586;2024-02-04T12:28:00;6.00;82.50
84739;DHT22;74969;44.836;-0.586;2024-02-04T12:30:28;6.10;82.20
84739;DHT22;74969;44.836;-0.586;2024-02-04T12:33:01;6.00;81.60
84739;DHT22;74969;44.836;-0.586;2024-02-04T12:35:27;6.00;82.40
84739;DHT22;74969;44.836;-0.586;2024-02-04T12:37:55;6.20;82.30
84739;DHT22;74969;44.836;-0.586;2024-02-04T12:40:31;6.40;81.70
84739;DHT22;74969;44.836;-0.586;2024-02-04T12:43:00;6.50;80.80
84739;DHT22;74969;44.836;-0.586;2024-02-04T12:45:27;6.50;80.70
84739;DHT22;74969;44.836;-0.586;2024-02-04T12:47:55;6.60;80.70
84739;DHT22;74969;44.836;-0.586;2024-02-04T12:50:21;6.50;81.10
84739;DHT22;74969;44.836;-0.586;2024-02-04T12:52:49;6.50;80.60
84739;DHT22;74969;44.836;-0.586;2024-02-04T12:55:26;6.50;80.40
84739;DHT22;74969;44.836;-0.586;2024-02-04T13:00:33;6.50;80.60
84739;DHT22;74969;44.836;-0.586;2024-02-04T13:02:59;6.30;80.70
84739;DHT22;74969;44.836;-0.586;2024-02-04T13:05:25;6.20;81.10
84739;DHT22;74969;44.836;-0.586;2024-02-04T13:07:53;6.20;81.70
84739;DHT22;74969;44.836;-0.586;2024-02-04T13:10:24;6.20;81.70
84739;DHT22;74969;44.836;-0.586;2024-02-04T13:13:07;6.40;81.70
84739;DHT22;74969;44.836;-0.586;2024-02-04T13:15:43;6.40;80.70
84739;DHT22;74969;44.836;-0.586;2024-02-04T13:18:09;6.40;80.90
84739;DHT22;74969;44.836;-0.586;2024-02-04T13:20:42;6.30;80.90
84739;DHT22;74969;44.836;-0.586;2024-02-04T13:23:08;6.30;80.90
84739;DHT22;74969;44.836;-0.586;2024-02-04T13:25:34;6.30;81.40
84739;DHT22;74969;44.836;-0.586;2024-02-04T13:28:00;6.30;81.70
84739;DHT22;74969;44.836;-0.586;2024-02-04T13:30:26;6.50;81.80
84739;DHT22;74969;44.836;-0.586;2024-02-04T13:32:52;6.60;81.70
84739;DHT22;74969;44.836;-0.586;2024-02-04T13:35:18;6.60;80.80
84739;DHT22;74969;44.836;-0.586;2024-02-04T13:37:45;6.50;80.70
84739;DHT22;74969;44.836;-0.586;2024-02-04T13:40:18;6.50;81.10
84739;DHT22;74969;44.836;-0.586;2024-02-04T13:42:44;6.60;81.00
84739;DHT22;74969;44.836;-0.586;2024-02-04T13:45:09;6.70;81.10
84739;DHT22;74969;44.836;-0.586;2024-02-04T13:47:36;6.70;80.50
84739;DHT22;74969;44.836;-0.586;2024-02-04T13:50:02;6.80;80.60
84739;DHT22;74969;44.836;-0.586;2024-02-04T13:52:29;6.80;80.40
84739;DHT22;74969;44.836;-0.586;2024-02-04T13:54:54;6.80;80.20
84739;DHT22;74969;44.836;-0.586;2024-02-04T13:57:20;6.80;80.60
84739;DHT22;74969;44.836;-0.586;2024-02-04T13:59:46;6.90;80.70
84739;DHT22;74969;44.836;-0.586;2024-02-04T14:02:11;6.90;80.40
84739;DHT22;74969;44.836;-0.586;2024-02-04T14:04:37;6.90;80.30
84739;DHT22;74969;44.836;-0.586;2024-02-04T14:07:03;6.90;80.00
84739;DHT22;74969;44.836;-0.586;2024-02-04T14:09:28;6.90;80.10
84739;DHT22;74969;44.836;-0.586;2024-02-04T14:11:54;6.90;80.10
84739;DHT22;74969;44.836;-0.586;2024-02-04T14:14:22;6.90;80.10
84739;DHT22;74969;44.836;-0.586;2024-02-04T14:16:48;7.00;80.40
84739;DHT22;74969;44.836;-0.586;2024-02-04T14:19:13;7.10;79.90
84739;DHT22;74969;44.836;-0.586;2024-02-04T14:21:40;7.10;79.60
84739;DHT22;74969;44.836;-0.586;2024-02-04T14:24:06;7.10;79.80
84739;DHT22;74969;44.836;-0.586;2024-02-04T14:26:32;7.10;79.40
84739;DHT22;74969;44.836;-0.586;2024-02-04T14:28:58;7.10;79.60
84739;DHT22;74969;44.836;-0.586;2024-02-04T14:31:24;7.10;79.50
84739;DHT22;74969;44.836;-0.586;2024-02-04T14:33:49;7.10;79.50
84739;DHT22;74969;44.836;-0.586;2024-02-04T14:36:16;7.00;79.40
84739;DHT22;74969;44.836;-0.586;2024-02-04T14:38:42;7.00;79.60
84739;DHT22;74969;44.836;-0.586;2024-02-04T14:41:08;7.00;79.60
84739;DHT22;74969;44.836;-0.586;2024-02-04T14:43:35;7.10;78.90
84739;DHT22;74969;44.836;-0.586;2024-02-04T14:46:01;7.00;79.10
84739;DHT22;74969;44.836;-0.586;2024-02-04T14:48:27;6.90;79.40
84739;DHT22;74969;44.836;-0.586;2024-02-04T14:50:52;6.80;79.40
84739;DHT22;74969;44.836;-0.586;2024-02-04T14:53:19;6.80;79.60
84739;DHT22;74969;44.836;-0.586;2024-02-04T14:55:45;6.80;79.90
84739;DHT22;74969;44.836;-0.586;2024-02-04T14:58:11;6.80;80.20
84739;DHT22;74969;44.836;-0.586;2024-02-04T15:00:36;6.70;80.10
84739;DHT22;74969;44.836;-0.586;2024-02-04T15:03:02;6.60;80.60
84739;DHT22;74969;44.836;-0.586;2024-02-04T15:05:28;6.70;80.90
84739;DHT22;74969;44.836;-0.586;2024-02-04T15:07:53;6.70;80.80
84739;DHT22;74969;44.836;-0.586;2024-02-04T15:10:20;6.80;80.40
84739;DHT22;74969;44.836;-0.586;2024-02-04T15:12:46;6.70;80.20
84739;DHT22;74969;44.836;-0.586;2024-02-04T15:15:12;6.70;80.40
84739;DHT22;74969;44.836;-0.586;2024-02-04T15:17:38;6.60;80.90
84739;DHT22;74969;44.836;-0.586;2024-02-04T15:20:04;6.80;80.90
84739;DHT22;74969;44.836;-0.586;2024-02-04T15:22:30;6.80;80.50
84739;DHT22;74969;44.836;-0.586;2024-02-04T15:24:56;6.80;80.80
84739;DHT22;74969;44.836;-0.586;2024-02-04T15:27:24;6.90;80.30
84739;DHT22;74969;44.836;-0.586;2024-02-04T15:29:54;6.90;80.50
84739;DHT22;74969;44.836;-0.586;2024-02-04T15:32:20;6.90;80.50
84739;DHT22;74969;44.836;-0.586;2024-02-04T15:34:46;6.80;80.30
84739;DHT22;74969;44.836;-0.586;2024-02-04T15:37:12;6.70;80.90